createdAt,value
2023-02-22T00:00:42.457Z,8.38
2023-02-22T00:01:42.447Z,8.42
2023-02-22T00:02:42.438Z,8.33
2023-02-22T00:03:42.454Z,8.38
2023-02-22T00:04:42.434Z,8.31
2023-02-22T00:05:42.469Z,8.44
2023-02-22T00:06:42.414Z,8.41
2023-02-22T00:07:42.423Z,8.46
2023-02-22T00:08:42.368Z,8.37
2023-02-22T00:09:42.374Z,8.51
2023-02-22T00:10:42.511Z,8.56
2023-02-22T00:11:42.336Z,8.48
2023-02-22T00:12:42.407Z,8.51
2023-02-22T00:13:42.348Z,8.48
2023-02-22T00:14:42.322Z,8.48
2023-02-22T00:15:42.334Z,8.53
2023-02-22T00:16:42.413Z,8.52
2023-02-22T00:17:42.395Z,8.48
2023-02-22T00:18:42.323Z,8.45
2023-02-22T00:19:42.258Z,8.51
2023-02-22T00:20:42.269Z,8.48
2023-02-22T00:21:42.260Z,8.55
2023-02-22T00:22:42.274Z,8.52
2023-02-22T00:23:42.226Z,8.46
2023-02-22T00:24:42.255Z,8.56
2023-02-22T00:25:42.225Z,8.53
2023-02-22T00:26:42.212Z,8.49
2023-02-22T00:27:42.208Z,8.51
2023-02-22T00:28:42.218Z,8.60
2023-02-22T00:29:42.156Z,8.49
2023-02-22T00:30:42.175Z,8.51
2023-02-22T00:31:42.192Z,8.56
2023-02-22T00:32:42.177Z,8.56
2023-02-22T00:33:42.144Z,8.52
2023-02-22T00:34:42.092Z,8.55
2023-02-22T00:35:42.130Z,8.58
2023-02-22T00:36:42.074Z,8.48
2023-02-22T00:37:42.191Z,8.48
2023-02-22T00:38:42.107Z,8.53
2023-02-22T00:39:42.056Z,8.46
2023-02-22T00:40:42.044Z,8.44
2023-02-22T00:41:42.118Z,8.48
2023-02-22T00:42:42.086Z,8.61
2023-02-22T00:43:42.030Z,8.56
2023-02-22T00:44:41.996Z,8.53
2023-02-22T00:45:42.012Z,8.55
2023-02-22T00:46:42.019Z,8.58
2023-02-22T00:47:42.740Z,8.55
2023-02-22T00:48:41.986Z,8.55
2023-02-22T00:49:42.015Z,8.63
2023-02-22T00:50:41.967Z,8.56
2023-02-22T00:51:41.986Z,8.61
2023-02-22T00:52:41.972Z,8.66
2023-02-22T00:53:41.914Z,8.66
2023-02-22T00:54:42.700Z,8.67
2023-02-22T00:55:41.945Z,8.60
2023-02-22T00:56:41.940Z,8.60
2023-02-22T00:57:41.906Z,8.67
2023-02-22T00:58:41.958Z,8.63
2023-02-22T00:59:41.899Z,8.63
2023-02-22T01:00:41.857Z,8.53
2023-02-22T01:01:41.827Z,8.55
2023-02-22T01:02:41.850Z,8.51
2023-02-22T01:03:41.849Z,8.41
2023-02-22T01:04:41.812Z,8.61
2023-02-22T01:05:41.805Z,8.53
2023-02-22T01:06:41.828Z,8.56
2023-02-22T01:07:41.838Z,8.63
2023-02-22T01:08:41.853Z,8.67
2023-02-22T01:09:41.758Z,8.69
2023-02-22T01:10:41.757Z,8.71
2023-02-22T01:11:41.778Z,8.76
2023-02-22T01:12:41.973Z,8.67
2023-02-22T01:13:41.742Z,8.76
2023-02-22T01:14:41.733Z,8.78
2023-02-22T01:15:41.708Z,8.70
2023-02-22T01:16:41.712Z,8.84
2023-02-22T01:17:41.681Z,8.81
2023-02-22T01:18:41.709Z,8.88
2023-02-22T01:19:41.783Z,8.73
2023-02-22T01:20:41.656Z,8.78
2023-02-22T01:21:41.659Z,8.74
2023-02-22T01:22:41.640Z,8.81
2023-02-22T01:23:41.635Z,8.91
2023-02-22T01:24:41.695Z,8.88
2023-02-22T01:25:41.655Z,8.84
2023-02-22T01:26:41.608Z,8.81
2023-02-22T01:27:41.561Z,8.89
2023-02-22T01:28:41.610Z,8.79
2023-02-22T01:29:41.563Z,8.70
2023-02-22T01:30:41.643Z,8.71
2023-02-22T01:31:41.696Z,8.78
2023-02-22T01:32:41.540Z,8.71
2023-02-22T01:33:41.582Z,8.88
2023-02-22T01:34:41.521Z,8.78
2023-02-22T01:35:41.581Z,8.79
2023-02-22T01:36:41.492Z,8.76
2023-02-22T01:37:41.480Z,8.73
2023-02-22T01:38:41.575Z,8.74
2023-02-22T01:39:41.483Z,8.71
2023-02-22T01:40:41.448Z,8.69
2023-02-22T01:41:41.465Z,8.66
2023-02-22T01:42:41.417Z,8.70
2023-02-22T01:43:41.462Z,8.56
2023-02-22T01:44:41.423Z,8.55
2023-02-22T01:45:41.518Z,8.64
2023-02-22T01:46:41.407Z,8.63
2023-02-22T01:47:41.385Z,8.55
2023-02-22T01:48:41.391Z,8.63
2023-02-22T01:49:42.043Z,8.63
2023-02-22T01:50:41.357Z,8.55
2023-02-22T01:51:41.350Z,8.45
2023-02-22T01:52:41.324Z,8.53
2023-02-22T01:53:41.372Z,8.53
2023-02-22T01:54:41.307Z,8.53
2023-02-22T01:55:41.308Z,8.46
2023-02-22T01:56:41.313Z,8.45
2023-02-22T01:57:41.337Z,8.48
2023-02-22T01:58:41.300Z,8.56
2023-02-22T01:59:41.255Z,8.48
2023-02-22T02:00:41.258Z,8.42
2023-02-22T02:01:41.320Z,8.48
2023-02-22T02:02:41.249Z,8.45
2023-02-22T02:03:41.290Z,8.42
2023-02-22T02:04:41.214Z,8.30
2023-02-22T02:05:41.210Z,8.34
2023-02-22T02:06:41.212Z,8.37
2023-02-22T02:07:41.196Z,8.36
2023-02-22T02:08:42.280Z,8.44
2023-02-22T02:09:41.180Z,8.38
2023-02-22T02:10:41.171Z,8.44
2023-02-22T02:11:41.174Z,8.45
2023-02-22T02:12:41.153Z,8.42
2023-02-22T02:13:41.164Z,8.41
2023-02-22T02:14:41.181Z,8.30
2023-02-22T02:15:41.107Z,8.42
2023-02-22T02:16:41.152Z,8.31
2023-02-22T02:17:41.088Z,8.30
2023-02-22T02:18:41.101Z,8.31
2023-02-22T02:19:41.178Z,8.13
2023-02-22T02:20:41.058Z,8.09
2023-02-22T02:21:41.056Z,8.10
2023-02-22T02:22:41.035Z,8.12
2023-02-22T02:23:41.057Z,8.13
2023-02-22T02:24:41.074Z,8.20
2023-02-22T02:25:41.053Z,8.24
2023-02-22T02:26:40.999Z,8.31
2023-02-22T02:27:41.003Z,8.33
2023-02-22T02:28:41.011Z,8.38
2023-02-22T02:29:40.964Z,8.38
2023-02-22T02:30:41.020Z,8.41
2023-02-22T02:31:41.122Z,8.44
2023-02-22T02:32:41.009Z,8.51
2023-02-22T02:33:40.968Z,8.48
2023-02-22T02:34:40.920Z,8.44
2023-02-22T02:35:40.930Z,8.31
2023-02-22T02:36:40.926Z,8.23
2023-02-22T02:37:40.874Z,8.24
2023-02-22T02:38:41.015Z,8.23
2023-02-22T02:39:40.872Z,8.20
2023-02-22T02:40:40.894Z,8.10
2023-02-22T02:41:40.843Z,7.94
2023-02-22T02:42:40.896Z,7.90
2023-02-22T02:43:40.910Z,7.88
2023-02-22T02:44:40.837Z,7.85
2023-02-22T02:45:40.831Z,7.85
2023-02-22T02:46:40.816Z,7.80
2023-02-22T02:47:40.778Z,7.80
2023-02-22T02:48:40.829Z,7.80
2023-02-22T02:49:40.935Z,7.82
2023-02-22T02:50:40.752Z,7.77
2023-02-22T02:51:40.730Z,7.76
2023-02-22T02:52:40.763Z,7.79
2023-02-22T02:53:40.756Z,7.67
2023-02-22T02:54:40.726Z,7.79
2023-02-22T02:55:40.725Z,7.83
2023-02-22T02:56:40.831Z,7.76
2023-02-22T02:57:40.698Z,7.73
2023-02-22T02:58:40.795Z,7.79
2023-02-22T02:59:40.697Z,7.80
2023-02-22T03:00:40.669Z,7.76
2023-02-22T03:01:40.719Z,7.79
2023-02-22T03:02:40.648Z,7.79
2023-02-22T03:03:40.702Z,7.79
2023-02-22T03:04:40.630Z,7.76
2023-02-22T03:05:40.670Z,7.85
2023-02-22T03:06:40.579Z,7.75
2023-02-22T03:07:40.637Z,7.79
2023-02-22T03:08:41.245Z,7.83
2023-02-22T03:09:40.567Z,7.79
2023-02-22T03:10:40.567Z,7.72
2023-02-22T03:11:40.600Z,7.77
2023-02-22T03:12:40.525Z,7.80
2023-02-22T03:13:40.572Z,7.75
2023-02-22T03:14:40.531Z,7.73
2023-02-22T03:15:41.166Z,7.70
2023-02-22T03:16:40.571Z,7.73
2023-02-22T03:17:40.572Z,7.69
2023-02-22T03:18:40.547Z,7.60
2023-02-22T03:19:40.506Z,7.66
2023-02-22T03:20:40.510Z,7.58
2023-02-22T03:21:40.467Z,7.63
2023-02-22T03:22:40.435Z,7.76
2023-02-22T03:23:40.450Z,7.69
2023-02-22T03:24:40.440Z,7.67
2023-02-22T03:25:40.421Z,7.72
2023-02-22T03:26:40.400Z,7.72
2023-02-22T03:27:40.414Z,7.69
2023-02-22T03:28:40.425Z,7.69
2023-02-22T03:29:40.447Z,7.69
2023-02-22T03:30:40.492Z,7.69
2023-02-22T03:31:40.370Z,7.63
2023-02-22T03:32:40.329Z,7.67
2023-02-22T03:33:40.428Z,7.66
2023-02-22T03:34:40.303Z,7.63
2023-02-22T03:35:41.401Z,7.66
2023-02-22T03:36:40.288Z,7.75
2023-02-22T03:37:40.289Z,7.67
2023-02-22T03:38:40.285Z,7.73
2023-02-22T03:39:40.279Z,7.70
2023-02-22T03:40:40.422Z,7.88
2023-02-22T03:41:40.257Z,7.80
2023-02-22T03:42:40.247Z,7.94
2023-02-22T03:43:40.305Z,7.93
2023-02-22T03:44:40.246Z,7.95
2023-02-22T03:45:40.225Z,7.98
2023-02-22T03:46:40.276Z,8.08
2023-02-22T03:47:40.286Z,7.93
2023-02-22T03:48:41.232Z,7.82
2023-02-22T03:49:40.228Z,7.66
2023-02-22T03:50:40.191Z,7.69
2023-02-22T03:51:40.196Z,7.69
2023-02-22T03:52:40.256Z,7.77
2023-02-22T03:53:40.153Z,7.73
2023-02-22T03:54:40.129Z,7.80
2023-02-22T03:55:41.139Z,7.87
2023-02-22T03:56:40.112Z,7.90
2023-02-22T03:57:40.105Z,7.95
2023-02-22T03:58:40.125Z,7.98
2023-02-22T03:59:40.139Z,7.93
2023-02-22T04:00:40.082Z,7.98
2023-02-22T04:01:40.060Z,7.95
2023-02-22T04:02:40.089Z,7.98
2023-02-22T04:03:40.048Z,7.95
2023-02-22T04:04:40.120Z,8.05
2023-02-22T04:05:40.041Z,7.88
2023-02-22T04:06:40.020Z,7.95
2023-02-22T04:07:39.969Z,7.93
2023-02-22T04:08:40.011Z,7.83
2023-02-22T04:09:40.025Z,7.79
2023-02-22T04:10:39.993Z,7.80
2023-02-22T04:11:39.965Z,7.73
2023-02-22T04:12:39.942Z,7.79
2023-02-22T04:13:39.959Z,7.76
2023-02-22T04:14:40.011Z,7.69
2023-02-22T04:15:40.816Z,7.76
2023-02-22T04:16:39.938Z,7.73
2023-02-22T04:17:40.007Z,7.72
2023-02-22T04:18:39.887Z,7.58
2023-02-22T04:19:39.947Z,7.43
2023-02-22T04:20:39.859Z,7.42
2023-02-22T04:21:39.936Z,7.32
2023-02-22T04:22:39.875Z,7.29
2023-02-22T04:23:39.856Z,7.13
2023-02-22T04:24:39.876Z,7.05
2023-02-22T04:25:39.841Z,6.97
2023-02-22T04:26:39.819Z,7.02
2023-02-22T04:27:39.820Z,7.14
2023-02-22T04:28:39.834Z,7.03
2023-02-22T04:29:39.842Z,7.18
2023-02-22T04:30:39.819Z,7.13
2023-02-22T04:31:39.827Z,7.10
2023-02-22T04:32:39.772Z,7.15
2023-02-22T04:33:39.795Z,7.07
2023-02-22T04:34:39.782Z,7.23
2023-02-22T04:35:39.760Z,7.15
2023-02-22T04:36:39.745Z,7.18
2023-02-22T04:37:39.719Z,7.25
2023-02-22T04:38:39.704Z,7.36
2023-02-22T04:39:39.774Z,7.23
2023-02-22T04:40:39.783Z,7.20
2023-02-22T04:41:39.625Z,7.23
2023-02-22T04:42:40.734Z,7.18
2023-02-22T04:43:39.660Z,7.13
2023-02-22T04:44:39.683Z,7.13
2023-02-22T04:45:39.644Z,7.07
2023-02-22T04:46:39.686Z,7.20
2023-02-22T04:47:40.553Z,7.10
2023-02-22T04:48:39.655Z,7.07
2023-02-22T04:49:39.632Z,7.03
2023-02-22T04:50:39.609Z,7.17
2023-02-22T04:51:39.557Z,7.10
2023-02-22T04:52:39.660Z,7.17
2023-02-22T04:53:39.545Z,7.05
2023-02-22T04:54:39.588Z,7.10
2023-02-22T04:55:39.540Z,7.11
2023-02-22T04:56:39.601Z,7.05
2023-02-22T04:57:39.573Z,7.07
2023-02-22T04:58:39.505Z,6.92
2023-02-22T04:59:39.778Z,6.88
2023-02-22T05:00:39.518Z,6.88
2023-02-22T05:01:39.523Z,6.88
2023-02-22T05:02:39.518Z,6.99
2023-02-22T05:03:39.464Z,6.92
2023-02-22T05:04:39.528Z,6.95
2023-02-22T05:05:39.496Z,7.06
2023-02-22T05:06:39.419Z,7.14
2023-02-22T05:07:39.411Z,7.10
2023-02-22T05:08:39.385Z,7.05
2023-02-22T05:09:39.458Z,6.97
2023-02-22T05:10:39.396Z,6.96
2023-02-22T05:11:39.369Z,6.97
2023-02-22T05:12:39.386Z,6.89
2023-02-22T05:13:39.364Z,6.97
2023-02-22T05:14:39.354Z,7.06
2023-02-22T05:15:39.430Z,7.06
2023-02-22T05:16:39.330Z,7.11
2023-02-22T05:17:39.319Z,7.00
2023-02-22T05:18:39.293Z,6.89
2023-02-22T05:19:39.308Z,6.88
2023-02-22T05:20:39.301Z,6.93
2023-02-22T05:21:39.292Z,6.82
2023-02-22T05:22:39.303Z,6.79
2023-02-22T05:23:39.278Z,6.84
2023-02-22T05:24:39.275Z,6.92
2023-02-22T05:25:39.224Z,6.88
2023-02-22T05:26:39.252Z,6.87
2023-02-22T05:27:39.223Z,6.81
2023-02-22T05:28:39.184Z,6.82
2023-02-22T05:29:39.261Z,6.81
2023-02-22T05:30:39.269Z,6.88
2023-02-22T05:31:39.313Z,6.92
2023-02-22T05:32:39.177Z,6.89
2023-02-22T05:33:39.150Z,6.93
2023-02-22T05:34:39.208Z,7.02
2023-02-22T05:35:39.159Z,7.13
2023-02-22T05:36:39.143Z,7.18
2023-02-22T05:37:39.148Z,7.15
2023-02-22T05:38:39.075Z,7.20
2023-02-22T05:39:39.110Z,7.17
2023-02-22T05:40:39.228Z,7.28
2023-02-22T05:41:39.086Z,7.02
2023-02-22T05:42:39.070Z,7.07
2023-02-22T05:43:39.094Z,7.00
2023-02-22T05:44:39.106Z,6.96
2023-02-22T05:45:39.045Z,6.95
2023-02-22T05:46:39.149Z,7.00
2023-02-22T05:47:39.579Z,6.87
2023-02-22T05:48:39.020Z,6.79
2023-02-22T05:49:39.061Z,6.82
2023-02-22T05:50:38.985Z,6.84
2023-02-22T05:51:38.999Z,6.93
2023-02-22T05:52:39.023Z,6.87
2023-02-22T05:53:38.971Z,6.78
2023-02-22T05:54:38.957Z,6.82
2023-02-22T05:55:38.982Z,6.77
2023-02-22T05:56:38.961Z,6.77
2023-02-22T05:57:38.967Z,6.82
2023-02-22T05:58:38.894Z,6.72
2023-02-22T05:59:39.214Z,6.69
2023-02-22T06:00:38.873Z,6.78
2023-02-22T06:01:38.894Z,6.70
2023-02-22T06:02:38.888Z,6.74
2023-02-22T06:03:38.864Z,6.85
2023-02-22T06:04:38.873Z,6.85
2023-02-22T06:05:38.908Z,6.77
2023-02-22T06:06:38.856Z,6.78
2023-02-22T06:07:38.837Z,6.75
2023-02-22T06:08:38.835Z,6.79
2023-02-22T06:09:38.806Z,6.78
2023-02-22T06:10:38.777Z,6.70
2023-02-22T06:11:38.771Z,6.75
2023-02-22T06:12:38.773Z,6.69
2023-02-22T06:13:38.776Z,6.74
2023-02-22T06:14:38.746Z,6.72
2023-02-22T06:15:38.851Z,6.66
2023-02-22T06:16:38.751Z,6.69
2023-02-22T06:17:38.718Z,6.66
2023-02-22T06:32:15.888Z,6.59
2023-02-22T06:33:15.874Z,6.45
2023-02-22T06:34:15.873Z,6.51
2023-02-22T06:35:15.972Z,6.63
2023-02-22T06:36:17.017Z,6.64
2023-02-22T06:37:17.009Z,6.78
2023-02-22T06:38:16.990Z,6.78
2023-02-22T06:39:16.981Z,6.85
2023-02-22T06:40:16.969Z,6.95
2023-02-22T06:41:17.232Z,6.96
2023-02-22T06:42:17.032Z,6.97
2023-02-22T06:43:17.074Z,6.99
2023-02-22T06:44:16.961Z,7.06
2023-02-22T06:45:16.896Z,7.05
2023-02-22T06:46:16.914Z,7.03
2023-02-22T06:47:16.861Z,7.03
2023-02-22T06:48:16.914Z,7.06
2023-02-22T06:49:16.860Z,6.97
2023-02-22T06:50:16.892Z,6.99
2023-02-22T06:51:18.079Z,6.95
2023-02-22T06:52:16.876Z,6.93
2023-02-22T06:53:16.822Z,6.92
2023-02-22T06:54:16.892Z,7.10
2023-02-22T06:55:16.853Z,6.96
2023-02-22T06:56:16.810Z,6.78
2023-02-22T06:57:16.795Z,6.70
2023-02-22T06:58:16.762Z,6.60
2023-02-22T06:59:16.780Z,6.64
2023-02-22T07:00:16.790Z,6.54
2023-02-22T07:01:17.217Z,6.44
2023-02-22T07:02:16.755Z,6.52
2023-02-22T07:03:16.761Z,6.59
2023-02-22T07:04:16.721Z,6.51
2023-02-22T07:05:16.744Z,6.44
2023-02-22T07:06:16.748Z,6.45
2023-02-22T07:07:16.685Z,6.42
2023-02-22T07:08:16.667Z,6.36
2023-02-22T07:09:16.671Z,6.39
2023-02-22T07:10:16.693Z,6.38
2023-02-22T07:11:17.147Z,6.36
2023-02-22T07:12:16.617Z,6.38
2023-02-22T07:13:16.671Z,6.51
2023-02-22T07:14:16.624Z,6.44
2023-02-22T07:15:16.627Z,6.42
2023-02-22T07:16:16.772Z,6.44
2023-02-22T07:17:16.577Z,6.49
2023-02-22T07:18:16.597Z,6.44
2023-02-22T07:19:16.575Z,6.52
2023-02-22T07:20:16.617Z,6.49
2023-02-22T07:21:16.814Z,6.59
2023-02-22T07:22:16.507Z,6.49
2023-02-22T07:23:16.539Z,6.49
2023-02-22T07:24:16.551Z,6.42
2023-02-22T07:25:16.530Z,6.44
2023-02-22T07:26:16.513Z,6.54
2023-02-22T07:27:16.487Z,6.60
2023-02-22T07:28:16.503Z,6.67
2023-02-22T07:29:16.484Z,6.69
2023-02-22T07:30:16.578Z,6.67
2023-02-22T07:31:16.611Z,6.54
2023-02-22T07:32:16.595Z,6.60
2023-02-22T07:33:16.477Z,6.57
2023-02-22T07:34:16.467Z,6.69
2023-02-22T07:35:16.435Z,6.81
2023-02-22T07:36:16.421Z,6.78
2023-02-22T07:37:16.375Z,6.82
2023-02-22T07:38:16.375Z,6.97
2023-02-22T07:39:16.435Z,7.00
2023-02-22T07:40:16.390Z,6.97
2023-02-22T07:41:16.619Z,7.10
2023-02-22T07:42:16.327Z,7.15
2023-02-22T07:43:16.322Z,7.14
2023-02-22T07:44:16.307Z,7.13
2023-02-22T07:45:16.320Z,7.18
2023-02-22T07:46:16.258Z,7.14
2023-02-22T07:47:16.288Z,7.13
2023-02-22T07:48:17.361Z,7.13
2023-02-22T07:49:17.300Z,7.06
2023-02-22T07:50:16.303Z,7.13
2023-02-22T07:51:16.614Z,7.15
2023-02-22T07:52:16.238Z,7.17
2023-02-22T07:53:16.269Z,7.21
2023-02-22T07:54:16.222Z,7.23
2023-02-22T07:55:16.236Z,7.25
2023-02-22T07:56:16.187Z,7.32
2023-02-22T07:57:16.171Z,7.29
2023-02-22T07:58:16.189Z,7.25
2023-02-22T07:59:16.210Z,7.31
2023-02-22T08:00:16.209Z,7.24
2023-02-22T08:01:16.452Z,7.29
2023-02-22T08:02:16.141Z,7.28
2023-02-22T08:03:16.142Z,7.31
2023-02-22T08:04:16.134Z,7.32
2023-02-22T08:05:16.101Z,7.33
2023-02-22T08:06:16.110Z,7.40
2023-02-22T08:07:17.064Z,7.47
2023-02-22T08:08:18.200Z,7.43
2023-02-22T08:09:16.071Z,7.43
2023-02-22T08:10:16.095Z,7.51
2023-02-22T08:11:16.391Z,7.40
2023-02-22T08:12:16.029Z,7.53
2023-02-22T08:13:17.144Z,7.50
2023-02-22T08:14:16.007Z,7.42
2023-02-22T08:15:16.024Z,7.42
2023-02-22T08:16:15.994Z,7.40
2023-02-22T08:17:16.027Z,7.47
2023-02-22T08:18:15.995Z,7.42
2023-02-22T08:19:15.937Z,7.54
2023-02-22T08:20:15.971Z,7.54
2023-02-22T08:21:16.248Z,7.48
2023-02-22T08:22:15.928Z,7.48
2023-02-22T08:23:15.958Z,7.58
2023-02-22T08:24:15.926Z,7.61
2023-02-22T08:25:15.924Z,7.60
2023-02-22T08:26:15.914Z,7.51
2023-02-22T08:27:15.878Z,7.61
2023-02-22T08:28:15.868Z,7.63
2023-02-22T08:29:15.880Z,7.61
2023-02-22T08:30:15.867Z,7.60
2023-02-22T08:31:16.147Z,7.67
2023-02-22T08:32:16.919Z,7.66
2023-02-22T08:33:16.013Z,7.61
2023-02-22T08:34:15.813Z,7.63
2023-02-22T08:35:15.835Z,7.60
2023-02-22T08:36:15.796Z,7.60
2023-02-22T08:37:15.793Z,7.60
2023-02-22T08:38:15.801Z,7.51
2023-02-22T08:39:15.938Z,7.38
2023-02-22T08:40:15.760Z,7.21
2023-02-22T08:41:16.096Z,7.21
2023-02-22T08:42:15.758Z,7.23
2023-02-22T08:43:15.732Z,7.28
2023-02-22T08:44:15.837Z,7.20
2023-02-22T08:45:15.755Z,7.23
2023-02-22T08:46:15.738Z,7.14
2023-02-22T08:47:15.710Z,7.17
2023-02-22T08:48:15.686Z,7.24
2023-02-22T08:49:15.699Z,7.28
2023-02-22T08:50:15.665Z,7.25
2023-02-22T08:51:16.012Z,7.25
2023-02-22T08:52:15.622Z,7.14
2023-02-22T08:53:15.652Z,7.03
2023-02-22T08:54:15.666Z,7.11
2023-02-22T08:55:15.728Z,7.10
2023-02-22T08:56:15.597Z,7.06
2023-02-22T08:57:15.609Z,7.13
2023-02-22T08:58:15.630Z,7.23
2023-02-22T08:59:15.603Z,7.42
2023-02-22T09:00:15.596Z,7.33
2023-02-22T09:01:21.820Z,7.42
2023-02-22T09:02:17.586Z,7.40
2023-02-22T09:03:15.643Z,7.42
2023-02-22T09:04:15.512Z,7.18
2023-02-22T09:05:15.582Z,7.29
2023-02-22T09:06:15.572Z,7.35
2023-02-22T09:07:15.525Z,7.39
2023-02-22T09:08:15.466Z,7.43
2023-02-22T09:09:15.479Z,7.40
2023-02-22T09:10:15.457Z,7.50
2023-02-22T09:11:15.562Z,7.61
2023-02-22T09:12:15.497Z,7.48
2023-02-22T09:13:15.412Z,7.61
2023-02-22T09:14:15.473Z,7.40
2023-02-22T09:15:15.415Z,7.14
2023-02-22T09:16:15.414Z,7.10
2023-02-22T09:17:15.461Z,7.29
2023-02-22T09:18:15.377Z,7.38
2023-02-22T09:19:15.363Z,7.31
2023-02-22T09:20:15.366Z,7.32
2023-02-22T09:21:15.755Z,7.36
2023-02-22T09:22:15.348Z,7.38
2023-02-22T09:23:15.301Z,7.40
2023-02-22T09:24:15.324Z,7.39
2023-02-22T09:25:17.293Z,7.47
2023-02-22T09:26:16.339Z,7.40
2023-02-22T09:27:15.287Z,7.57
2023-02-22T09:28:15.260Z,7.51
2023-02-22T09:29:15.276Z,7.50
2023-02-22T09:30:15.299Z,7.51
2023-02-22T09:31:15.461Z,7.63
2023-02-22T09:32:15.291Z,7.70
2023-02-22T09:33:15.356Z,7.77
2023-02-22T09:34:15.205Z,7.91
2023-02-22T09:35:15.194Z,7.90
2023-02-22T09:36:15.408Z,7.88
2023-02-22T09:37:15.191Z,7.97
2023-02-22T09:38:15.158Z,7.93
2023-02-22T09:39:15.141Z,8.00
2023-02-22T09:40:15.138Z,7.98
2023-02-22T09:41:15.509Z,8.12
2023-02-22T09:42:15.135Z,8.08
2023-02-22T09:43:15.137Z,8.20
2023-02-22T09:44:15.152Z,8.36
2023-02-22T09:45:15.081Z,8.34
2023-02-22T09:46:15.484Z,8.38
2023-02-22T09:47:15.120Z,8.45
2023-02-22T09:48:21.717Z,8.44
2023-02-22T09:49:17.056Z,8.53
2023-02-22T09:50:15.057Z,8.41
2023-02-22T09:51:15.187Z,8.51
2023-02-22T09:52:15.026Z,8.46
2023-02-22T09:53:15.041Z,8.38
2023-02-22T09:54:14.990Z,8.30
2023-02-22T09:55:15.008Z,8.41
2023-02-22T09:56:15.260Z,8.46
2023-02-22T09:57:14.992Z,8.48
2023-02-22T09:58:14.995Z,8.53
2023-02-22T09:59:14.958Z,8.52
2023-02-22T10:00:14.948Z,8.60
2023-02-22T10:01:15.085Z,8.61
2023-02-22T10:02:14.918Z,8.70
2023-02-22T10:03:14.978Z,8.73
2023-02-22T10:04:14.926Z,8.71
2023-02-22T10:05:15.060Z,8.85
2023-02-22T10:06:15.192Z,8.61
2023-02-22T10:07:14.865Z,8.64
2023-02-22T10:08:14.867Z,8.66
2023-02-22T10:09:14.870Z,8.64
2023-02-22T10:10:14.884Z,8.61
2023-02-22T10:11:14.874Z,8.52
2023-02-22T10:12:14.955Z,8.52
2023-02-22T10:13:14.804Z,8.41
2023-02-22T10:14:14.820Z,8.48
2023-02-22T10:15:14.795Z,8.53
2023-02-22T10:16:14.896Z,8.44
2023-02-22T10:17:14.796Z,8.45
2023-02-22T10:18:14.793Z,8.45
2023-02-22T10:19:14.800Z,8.58
2023-02-22T10:20:14.759Z,8.52
2023-02-22T10:21:14.791Z,8.58
2023-02-22T10:22:14.715Z,8.61
2023-02-22T10:23:14.758Z,8.70
2023-02-22T10:24:14.769Z,8.76
2023-02-22T10:25:14.708Z,8.70
2023-02-22T10:26:14.957Z,8.82
2023-02-22T10:27:14.697Z,8.79
2023-02-22T10:28:14.701Z,8.73
2023-02-22T10:29:14.682Z,8.88
2023-02-22T10:30:24.125Z,8.74
2023-02-22T10:31:16.793Z,8.73
2023-02-22T10:32:14.786Z,8.81
2023-02-22T10:33:14.626Z,8.79
2023-02-22T10:34:14.616Z,8.76
2023-02-22T10:35:14.658Z,8.81
2023-02-22T10:36:14.898Z,8.81
2023-02-22T10:37:14.585Z,8.85
2023-02-22T10:38:14.644Z,8.88
2023-02-22T10:39:14.610Z,9.04
2023-02-22T10:40:14.603Z,8.94
2023-02-22T10:41:16.352Z,8.99
2023-02-22T10:42:14.564Z,9.02
2023-02-22T10:43:14.535Z,9.08
2023-02-22T10:44:14.525Z,9.04
2023-02-22T10:45:14.505Z,9.13
2023-02-22T10:46:14.681Z,9.18
2023-02-22T10:47:16.594Z,9.16
2023-02-22T10:48:14.538Z,9.11
2023-02-22T10:49:14.466Z,9.16
2023-02-22T10:50:14.473Z,9.25
2023-02-22T10:51:14.466Z,9.16
2023-02-22T10:52:14.449Z,9.19
2023-02-22T10:53:14.442Z,9.13
2023-02-22T10:54:14.434Z,9.18
2023-02-22T10:55:15.851Z,9.23
2023-02-22T10:56:14.593Z,9.08
2023-02-22T10:57:14.410Z,9.02
2023-02-22T10:58:14.421Z,9.21
2023-02-22T10:59:14.389Z,9.16
2023-02-22T11:00:14.374Z,9.19
2023-02-22T11:01:14.505Z,9.26
2023-02-22T11:02:14.336Z,9.21
2023-02-22T11:03:14.343Z,9.28
2023-02-22T11:04:14.423Z,9.18
2023-02-22T11:05:14.341Z,9.39
2023-02-22T11:06:14.680Z,9.29
2023-02-22T11:07:14.290Z,9.21
2023-02-22T11:08:14.306Z,9.34
2023-02-22T11:09:14.296Z,9.32
2023-02-22T11:10:14.265Z,9.43
2023-02-22T11:11:14.570Z,9.44
2023-02-22T11:12:14.227Z,9.39
2023-02-22T11:13:14.254Z,9.51
2023-02-22T11:14:14.257Z,9.54
2023-02-22T11:15:14.215Z,9.51
2023-02-22T11:16:14.284Z,9.46
2023-02-22T11:17:14.203Z,9.61
2023-02-22T11:18:14.161Z,9.62
2023-02-22T11:19:14.181Z,9.61
2023-02-22T11:20:14.144Z,9.50
2023-02-22T11:21:14.178Z,9.44
2023-02-22T11:22:14.208Z,9.46
2023-02-22T11:23:14.129Z,9.54
2023-02-22T11:24:14.135Z,9.43
2023-02-22T11:25:14.179Z,9.44
2023-02-22T11:26:14.098Z,9.39
2023-02-22T11:27:14.125Z,9.50
2023-02-22T11:28:14.084Z,9.47
2023-02-22T11:29:14.078Z,9.48
2023-02-22T11:30:14.051Z,9.50
2023-02-22T11:31:14.080Z,9.44
2023-02-22T11:32:15.092Z,9.55
2023-02-22T11:33:14.074Z,9.43
2023-02-22T11:34:14.023Z,9.13
2023-02-22T11:35:13.994Z,8.99
2023-02-22T11:36:14.005Z,8.92
2023-02-22T11:37:14.021Z,9.13
2023-02-22T11:38:13.986Z,9.16
2023-02-22T11:39:14.037Z,9.34
2023-02-22T11:40:13.974Z,9.36
2023-02-22T11:41:14.010Z,9.40
2023-02-22T11:42:13.989Z,9.50
2023-02-22T11:43:13.924Z,9.56
2023-02-22T11:44:13.916Z,9.72
2023-02-22T11:45:13.924Z,9.89
2023-02-22T11:46:13.937Z,9.92
2023-02-22T11:47:14.011Z,9.95
2023-02-22T11:48:13.906Z,9.65
2023-02-22T11:49:14.291Z,9.61
2023-02-22T11:50:13.873Z,9.59
2023-02-22T11:51:14.713Z,9.59
2023-02-22T11:52:13.863Z,9.68
2023-02-22T11:53:13.819Z,9.74
2023-02-22T11:54:13.835Z,9.82
2023-02-22T11:55:13.812Z,9.95
2023-02-22T11:56:13.791Z,9.87
2023-02-22T11:57:13.810Z,9.91
2023-02-22T11:58:13.919Z,10.07
2023-02-22T11:59:14.806Z,10.01
2023-02-22T12:00:13.778Z,10.22
2023-02-22T12:01:13.743Z,10.17
2023-02-22T12:02:13.753Z,10.34
2023-02-22T12:03:13.837Z,10.34
2023-02-22T12:04:13.775Z,10.42
2023-02-22T12:05:13.728Z,10.54
2023-02-22T12:06:13.709Z,10.56
2023-02-22T12:07:13.697Z,10.63
2023-02-22T12:08:19.627Z,10.72
2023-02-22T12:09:15.682Z,10.64
2023-02-22T12:10:13.638Z,10.71
2023-02-22T12:11:13.649Z,10.76
2023-02-22T12:12:13.635Z,10.75
2023-02-22T12:13:13.613Z,10.74
2023-02-22T12:14:13.590Z,10.76
2023-02-22T12:15:13.637Z,10.86
2023-02-22T12:16:13.625Z,10.84
2023-02-22T12:17:13.584Z,10.78
2023-02-22T12:18:13.568Z,10.82
2023-02-22T12:19:13.562Z,10.97
2023-02-22T12:20:13.654Z,11.12
2023-02-22T12:21:13.525Z,11.43
2023-02-22T12:22:13.568Z,11.57
2023-02-22T12:23:13.494Z,11.60
2023-02-22T12:24:13.504Z,11.73
2023-02-22T12:25:13.525Z,11.86
2023-02-22T12:26:13.495Z,12.06
2023-02-22T12:27:13.586Z,12.21
2023-02-22T12:28:24.247Z,12.35
2023-02-22T12:29:15.469Z,12.53
2023-02-22T12:30:13.511Z,12.70
2023-02-22T12:31:13.523Z,12.80
2023-02-22T12:32:13.592Z,12.91
2023-02-22T12:33:13.405Z,13.00
2023-02-22T12:34:13.531Z,13.20
2023-02-22T12:35:13.416Z,13.38
2023-02-22T12:36:13.410Z,13.53
2023-02-22T12:37:13.439Z,13.77
2023-02-22T12:38:13.408Z,14.05
2023-02-22T12:39:13.425Z,14.25
2023-02-22T12:40:13.364Z,14.20
2023-02-22T12:41:13.348Z,14.20
2023-02-22T12:42:13.386Z,14.12
2023-02-22T12:43:13.307Z,14.14
2023-02-22T12:44:13.329Z,14.30
2023-02-22T12:45:13.337Z,14.33
2023-02-22T12:46:13.297Z,14.54
2023-02-22T12:47:13.317Z,14.65
2023-02-22T12:48:13.276Z,14.79
2023-02-22T12:49:13.315Z,15.03
2023-02-22T12:50:15.585Z,14.99
2023-02-22T12:51:14.345Z,15.28
2023-02-22T12:52:21.391Z,15.18
2023-02-22T12:53:15.240Z,15.03
2023-02-22T12:54:13.223Z,15.04
2023-02-22T12:55:13.246Z,14.70
2023-02-22T12:56:13.230Z,14.53
2023-02-22T12:57:13.191Z,14.40
2023-02-22T12:58:13.189Z,14.20
2023-02-22T12:59:13.158Z,14.12
2023-02-22T13:00:13.167Z,14.37
2023-02-22T13:01:13.133Z,14.70
2023-02-22T13:02:13.177Z,15.06
2023-02-22T13:03:13.117Z,15.44
2023-02-22T13:04:20.652Z,15.51
2023-02-22T13:05:15.132Z,15.92
2023-02-22T13:06:13.106Z,16.09
2023-02-22T13:07:13.158Z,16.10
2023-02-22T13:08:13.040Z,16.36
2023-02-22T13:09:14.085Z,16.39
2023-02-22T13:10:13.086Z,16.32
2023-02-22T13:11:13.070Z,16.23
2023-02-22T13:12:13.052Z,16.24
2023-02-22T13:13:13.023Z,16.38
2023-02-22T13:14:13.041Z,16.38
2023-02-22T13:15:13.017Z,16.41
2023-02-22T13:16:13.032Z,16.26
2023-02-22T13:17:12.985Z,16.32
2023-02-22T13:18:13.021Z,16.50
2023-02-22T13:19:12.943Z,16.39
2023-02-22T13:20:12.973Z,16.39
2023-02-22T13:21:12.934Z,16.12
2023-02-22T13:22:12.945Z,15.98
2023-02-22T13:23:12.934Z,15.94
2023-02-22T13:24:12.865Z,15.67
2023-02-22T13:25:12.927Z,15.51
2023-02-22T13:26:12.886Z,15.37
2023-02-22T13:27:12.864Z,15.24
2023-02-22T13:28:13.890Z,15.10
2023-02-22T13:29:12.854Z,14.94